Time;durP1;ratioP1;P1;durP2;ratioP2;P2;SDS_P1;SDS_P2;PMS_P1;PMS_P2;Temp;Humidity;BMP_temperature;BMP_pressure;BME280_temperature;BME280_humidity;BME280_pressure;Samples;Min_cycle;Max_cycle;Signal;HPM_P1;HPM_P2
2022/04/18 16:08:52;;;;;;;3.22;1.30;;;;;;;20.56;26.17;100838.97;4924918;27;5310166;-42
2022/04/18 16:11:18;;;;;;;9.57;1.10;;;;;;;20.35;26.27;100846.84;5078285;28;20394;-42
2022/04/18 16:13:44;;;;;;;5.00;1.70;;;;;;;20.20;25.94;100849.34;5111774;28;20114;-43
2022/04/18 16:16:10;;;;;;;3.25;1.23;;;;;;;20.01;26.22;100849.59;5112125;28;20027;-44
2022/04/18 16:18:36;;;;;;;3.83;1.33;;;;;;;20.05;27.45;100836.28;5093307;28;20036;-43
2022/04/18 16:21:02;;;;;;;5.03;1.52;;;;;;;20.04;27.78;100838.19;5111023;28;20084;-43
2022/04/18 16:23:28;;;;;;;4.03;1.33;;;;;;;20.01;26.91;100829.69;5093191;28;20487;-43
2022/04/18 16:25:54;;;;;;;3.55;1.27;;;;;;;20.07;27.67;100847.78;5092892;28;20030;-44
2022/04/18 16:28:20;;;;;;;4.70;1.05;;;;;;;20.02;27.73;100842.22;5111204;28;20044;-43
2022/04/18 16:33:31;;;;;;;3.50;1.05;;;;;;;19.97;28.44;100837.53;5098310;28;20032;-43
2022/04/18 16:35:57;;;;;;;4.10;1.02;;;;;;;19.90;28.53;100839.59;5112053;28;20092;-43
2022/04/18 16:38:22;;;;;;;4.95;1.40;;;;;;;20.13;28.92;100846.78;5110584;28;20030;-45
2022/04/18 16:46:19;;;;;;;3.58;1.45;;;;;;;19.72;27.95;100837.88;5095275;28;20028;-44
2022/04/18 16:48:45;;;;;;;3.30;1.50;;;;;;;19.54;27.92;100834.28;5092106;28;20181;-43
2022/04/18 16:51:11;;;;;;;4.50;1.42;;;;;;;19.37;28.53;100843.47;5092011;28;20066;-43
2022/04/18 16:53:37;;;;;;;4.43;1.27;;;;;;;19.10;29.01;100833.97;5110352;28;20111;-43
2022/04/18 16:56:03;;;;;;;3.60;1.50;;;;;;;18.96;28.97;100840.75;5110688;28;20024;-42
2022/04/18 16:58:29;;;;;;;6.15;2.00;;;;;;;18.84;30.25;100850.84;5076895;28;20031;-43
2022/04/18 17:00:54;;;;;;;4.30;1.40;;;;;;;18.74;29.76;100841.38;5089601;28;20028;-43
2022/04/18 17:03:20;;;;;;;4.35;1.60;;;;;;;18.68;30.10;100830.59;5090720;28;20051;-43
2022/04/18 17:05:46;;;;;;;10.25;2.10;;;;;;;18.77;30.15;100835.44;5090478;28;20036;-44
2022/04/18 17:08:12;;;;;;;5.30;1.50;;;;;;;18.73;30.22;100836.16;5085420;28;20049;-43
2022/04/18 17:10:37;;;;;;;2.95;1.30;;;;;;;18.71;29.75;100827.41;5076254;28;20063;-46
2022/04/18 17:13:03;;;;;;;6.53;1.70;;;;;;;18.77;30.19;100842.78;5058588;28;20104;-43
2022/04/18 17:15:29;;;;;;;3.90;1.60;;;;;;;18.67;30.18;100835.22;5076056;28;20437;-45
2022/04/18 17:17:55;;;;;;;3.78;1.20;;;;;;;18.70;30.17;100839.34;5076341;28;20052;-42
2022/04/18 17:20:22;;;;;;;5.40;1.50;;;;;;;18.62;29.52;100826.13;5076233;28;20472;-42
2022/04/18 17:22:48;;;;;;;6.90;1.70;;;;;;;18.50;29.99;100820.72;5057911;28;20031;-42
2022/04/18 17:25:14;;;;;;;4.10;1.30;;;;;;;18.55;30.76;100826.25;5076038;28;20028;-43
2022/04/18 17:27:39;;;;;;;3.97;1.30;;;;;;;18.59;30.20;100830.16;5057781;28;20380;-43
2022/04/18 17:30:06;;;;;;;4.78;1.50;;;;;;;18.62;30.55;100824.22;5057767;28;20107;-44
2022/04/18 17:32:32;;;;;;;11.38;4.18;;;;;;;18.66;30.74;100830.84;5075683;28;20495;-43
2022/04/18 17:34:58;;;;;;;8.10;2.35;;;;;;;18.62;30.61;100834.28;5057966;28;20115;-43
2022/04/18 17:37:26;;;;;;;16.05;7.20;;;;;;;18.63;31.10;100827.75;5076441;28;20020;-42
2022/04/18 17:39:52;;;;;;;12.73;4.65;;;;;;;18.52;30.88;100821.28;5075808;28;20025;-43
2022/04/18 17:42:17;;;;;;;5.70;2.65;;;;;;;18.41;30.91;100824.84;5075639;28;20050;-45
2022/04/18 17:44:46;;;;;;;5.22;2.72;;;;;;;18.30;31.06;100810.19;5075898;28;20111;-43
2022/04/18 17:47:11;;;;;;;5.18;2.55;;;;;;;18.40;31.21;100829.44;5075591;28;20150;-44
2022/04/18 17:49:37;;;;;;;6.55;2.45;;;;;;;18.34;31.38;100817.63;5075851;28;20491;-45
2022/04/18 17:52:03;;;;;;;7.85;3.75;;;;;;;18.37;31.35;100833.47;5075485;28;20032;-42
2022/04/18 17:57:17;;;;;;;5.80;1.55;;;;;;;18.13;30.83;100824.47;5047295;28;20127;-46
2022/04/18 17:59:43;;;;;;;2.92;1.10;;;;;;;18.04;31.46;100839.47;5077189;28;20028;-42
2022/04/18 18:02:09;;;;;;;4.80;1.50;;;;;;;17.97;31.17;100831.41;5077102;28;20031;-46
2022/04/18 18:04:35;;;;;;;4.72;1.75;;;;;;;17.89;31.13;100831.75;5078955;28;20527;-43
2022/04/18 18:07:01;;;;;;;4.25;1.73;;;;;;;17.68;31.59;100807.81;5061072;28;20094;-45
2022/04/18 18:09:26;;;;;;;3.28;1.60;;;;;;;17.67;32.04;100827.91;5078310;28;20028;-46
2022/04/18 18:11:52;;;;;;;3.70;1.50;;;;;;;17.32;32.03;100798.75;5076850;28;20029;-45
2022/04/18 18:14:18;;;;;;;4.03;1.70;;;;;;;17.39;32.15;100832.88;5058599;28;20033;-43
2022/04/18 18:16:44;;;;;;;7.55;2.03;;;;;;;17.24;32.14;100823.50;5075944;28;20032;-42
2022/04/18 18:19:10;;;;;;;4.10;1.80;;;;;;;17.20;32.25;100836.69;5057865;28;20025;-44
2022/04/18 18:21:37;;;;;;;5.55;1.40;;;;;;;17.08;32.30;100833.91;5074074;28;20028;-44
2022/04/18 18:24:04;;;;;;;3.92;1.30;;;;;;;16.98;32.33;100829.03;5057566;28;20024;-42
2022/04/18 18:26:30;;;;;;;2.70;1.38;;;;;;;16.89;32.70;100832.28;5079234;28;20060;-44
2022/04/18 18:28:57;;;;;;;3.35;1.40;;;;;;;16.87;32.26;100837.91;5075675;28;20422;-44
2022/04/18 18:31:23;;;;;;;3.78;1.25;;;;;;;16.79;32.49;100840.88;5075605;28;20028;-45
2022/04/18 18:33:49;;;;;;;4.22;1.05;;;;;;;16.65;32.54;100846.44;5075032;28;20033;-45
2022/04/18 18:36:17;;;;;;;1.70;1.30;;;;;;;16.47;33.05;100830.16;5056431;28;20032;-45
2022/04/18 18:38:43;;;;;;;6.13;1.38;;;;;;;16.44;33.34;100839.59;5056647;28;20025;-46
2022/04/18 18:41:09;;;;;;;4.72;1.08;;;;;;;16.31;33.84;100831.59;5074552;28;20031;-44
2022/04/18 18:43:35;;;;;;;3.28;1.98;;;;;;;16.13;34.20;100828.81;5074157;28;20115;-43
2022/04/18 18:46:01;;;;;;;5.55;1.02;;;;;;;16.04;34.10;100839.09;5056474;28;20046;-46
2022/04/18 18:48:29;;;;;;;5.13;1.30;;;;;;;16.08;34.41;100859.28;5074679;28;20070;-43
2022/04/18 18:53:43;;;;;;;5.53;2.20;;;;;;;15.93;34.96;100870.44;5060446;28;20329;-44
2022/04/18 18:56:10;;;;;;;2.38;1.08;;;;;;;15.66;35.19;100834.56;5040280;28;20028;-43
2022/04/18 18:58:36;;;;;;;6.15;1.75;;;;;;;15.75;35.23;100862.22;5074729;28;20035;-44
2022/04/18 19:01:02;;;;;;;7.32;1.90;;;;;;;15.66;35.44;100873.28;5056603;28;20024;-43
2022/04/18 19:03:28;;;;;;;6.45;1.60;;;;;;;15.55;35.92;100863.16;5074882;28;20035;-43
2022/04/18 19:05:54;;;;;;;3.85;1.80;;;;;;;15.50;35.94;100862.97;5074659;28;20040;-43
2022/04/18 19:08:19;;;;;;;9.68;2.72;;;;;;;15.45;36.16;100873.59;5004758;28;20041;-44
2022/04/18 19:10:46;;;;;;;4.88;2.10;;;;;;;15.29;36.21;100862.22;5016750;28;20041;-43
2022/04/18 19:13:12;;;;;;;4.13;1.73;;;;;;;15.16;36.49;100847.94;5033063;28;20108;-44
2022/04/18 19:15:40;;;;;;;3.28;1.40;;;;;;;15.21;36.59;100867.91;5034564;28;20117;-45
2022/04/18 19:26:24;;;;;;;3.58;1.60;;;;;;;14.89;37.05;100859.69;5018838;28;20033;-45
2022/04/18 19:28:53;;;;;;;3.30;1.33;;;;;;;14.90;37.82;100877.56;5032867;28;20091;-44
2022/04/18 19:31:21;;;;;;;4.63;1.80;;;;;;;14.89;38.04;100886.72;5033894;28;20098;-44
2022/04/18 19:33:47;;;;;;;15.07;8.93;;;;;;;14.86;37.98;100884.44;5034113;28;20037;-45
2022/04/18 19:36:17;;;;;;;6.10;5.45;;;;;;;14.84;38.16;100877.56;5032808;28;20036;-46
2022/04/18 19:38:45;;;;;;;6.70;4.35;;;;;;;14.86;38.00;100897.97;5034288;28;20067;-44
2022/04/18 19:41:11;;;;;;;5.78;4.28;;;;;;;14.85;38.18;100895.47;5034639;28;20429;-46
2022/04/18 19:43:38;;;;;;;22.60;12.50;;;;;;;14.84;38.43;100889.22;5034241;28;20032;-44
2022/04/18 19:46:05;;;;;;;17.40;10.10;;;;;;;14.80;38.03;100895.25;5032962;28;20029;-47
2022/04/18 19:48:32;;;;;;;13.60;7.28;;;;;;;14.81;38.66;100896.94;5034836;28;20069;-43
2022/04/18 19:50:58;;;;;;;9.55;4.70;;;;;;;14.71;38.71;100887.38;5034864;28;20108;-45
2022/04/18 19:53:24;;;;;;;5.78;2.50;;;;;;;14.70;38.39;100890.28;5035287;28;20496;-44
2022/04/18 19:55:51;;;;;;;5.20;2.67;;;;;;;14.69;38.76;100897.56;5035174;28;20040;-44
2022/04/18 19:58:17;;;;;;;4.78;2.47;;;;;;;14.64;38.72;100894.66;5034903;28;20027;-45
2022/04/18 20:00:43;;;;;;;3.47;1.80;;;;;;;14.56;38.85;100894.00;5034929;28;20033;-45
2022/04/18 20:03:12;;;;;;;5.35;2.70;;;;;;;14.56;39.09;100896.72;5033587;28;20441;-44
2022/04/18 20:05:37;;;;;;;2.78;2.13;;;;;;;14.52;38.73;100901.69;5033450;28;20082;-46
2022/04/18 20:08:04;;;;;;;4.95;2.00;;;;;;;14.48;39.37;100898.59;5059305;28;20045;-44
2022/04/18 20:10:29;;;;;;;4.60;2.10;;;;;;;14.39;39.14;100891.72;5055428;28;20031;-44
2022/04/18 20:12:56;;;;;;;3.63;1.65;;;;;;;14.36;39.70;100899.41;5073580;28;20380;-45
2022/04/18 20:15:41;;;;;;;4.40;1.50;;;;;;;14.32;39.71;100904.44;5073170;28;20108;-44
2022/04/18 20:18:10;;;;;;;2.58;1.75;;;;;;;14.24;39.43;100896.50;5073224;28;20052;-44
2022/04/18 20:20:37;;;;;;;4.78;1.73;;;;;;;14.26;39.75;100902.53;5073126;28;20150;-44
2022/04/18 20:23:03;;;;;;;6.57;1.33;;;;;;;14.16;39.63;100892.16;5072980;28;20502;-43
2022/04/18 20:25:28;;;;;;;1.58;1.10;;;;;;;14.08;40.00;100895.06;5073304;28;20449;-43
2022/04/18 20:27:54;;;;;;;2.78;1.55;;;;;;;14.05;40.33;100901.69;5073144;28;20033;-44
2022/04/18 20:30:20;;;;;;;6.30;2.15;;;;;;;14.01;40.32;100896.94;5055269;28;20051;-43
2022/04/18 20:32:46;;;;;;;6.93;2.10;;;;;;;13.92;41.28;100907.06;5072897;28;20103;-44
2022/04/18 20:35:11;;;;;;;3.50;1.92;;;;;;;13.80;40.89;100887.09;5072792;28;20036;-44
2022/04/18 20:37:37;;;;;;;7.45;1.70;;;;;;;13.73;41.06;100885.22;5072485;28;20025;-45
2022/04/18 20:40:06;;;;;;;4.60;1.73;;;;;;;13.77;41.55;100901.03;5072486;28;20032;-44
2022/04/18 20:42:35;;;;;;;3.53;1.48;;;;;;;13.69;41.71;100902.06;5072625;28;20093;-45
2022/04/18 20:45:02;;;;;;;2.92;1.83;;;;;;;13.67;41.79;100901.41;5075968;28;20469;-45
2022/04/18 20:47:28;;;;;;;4.82;1.80;;;;;;;13.64;42.19;100905.34;5076663;28;20068;-44
2022/04/18 20:49:54;;;;;;;7.15;2.38;;;;;;;13.50;42.51;100900.94;5077324;28;20043;-43
2022/04/18 21:00:43;;;;;;;4.80;1.77;;;;;;;13.41;42.30;100907.53;5061895;28;20028;-47
2022/04/18 21:03:09;;;;;;;5.60;2.10;;;;;;;13.36;42.64;100913.56;5058354;28;20106;-45
2022/04/18 21:05:35;;;;;;;4.43;1.83;;;;;;;13.24;43.86;100913.28;5058339;28;20032;-44
2022/04/18 21:08:02;;;;;;;6.47;2.03;;;;;;;13.05;43.71;100878.94;5075957;28;20044;-44
2022/04/18 21:10:27;;;;;;;6.93;2.40;;;;;;;13.22;43.88;100909.09;5076073;28;20464;-44
2022/04/18 21:12:53;;;;;;;5.32;2.38;;;;;;;13.22;43.71;100909.91;5076335;28;20103;-45
2022/04/18 21:15:19;;;;;;;5.20;2.58;;;;;;;13.18;44.16;100911.34;5076209;28;20495;-46
2022/04/18 21:17:45;;;;;;;4.82;1.85;;;;;;;13.18;44.84;100922.13;5075783;28;20024;-45
2022/04/18 21:20:11;;;;;;;7.00;2.30;;;;;;;13.16;43.87;100914.25;5057929;28;20036;-44
2022/04/18 21:22:37;;;;;;;3.22;1.70;;;;;;;13.17;44.07;100909.69;5057924;28;20029;-43
2022/04/18 21:25:05;;;;;;;7.65;1.88;;;;;;;13.14;43.57;100912.78;5075826;28;20029;-43
2022/04/18 21:27:31;;;;;;;5.05;1.60;;;;;;;13.10;43.99;100914.22;5057649;28;20067;-45
2022/04/18 21:29:57;;;;;;;3.55;1.95;;;;;;;13.08;44.69;100916.28;5075478;28;20034;-46
2022/04/18 21:32:23;;;;;;;10.55;2.40;;;;;;;13.06;44.33;100915.66;5057392;28;20028;-44
2022/04/18 21:34:48;;;;;;;8.23;2.08;;;;;;;13.01;45.07;100915.41;5057269;28;20033;-44
2022/04/18 21:37:14;;;;;;;5.30;1.80;;;;;;;12.96;44.77;100924.94;5075952;28;20029;-43
2022/04/18 21:39:40;;;;;;;3.95;1.60;;;;;;;12.84;45.72;100912.22;5076278;28;20082;-42
2022/04/18 21:42:07;;;;;;;2.75;1.52;;;;;;;12.89;45.99;100913.28;5075597;28;20384;-42
2022/04/18 21:44:33;;;;;;;2.33;1.73;;;;;;;12.91;46.84;100924.69;5075525;28;20024;-43
2022/04/18 21:46:59;;;;;;;8.05;1.90;;;;;;;12.92;45.79;100928.22;5057248;28;20465;-43
2022/04/18 21:49:25;;;;;;;4.78;1.77;;;;;;;12.82;46.29;100907.00;5057379;28;20040;-44
2022/04/18 21:51:51;;;;;;;4.20;2.08;;;;;;;12.96;45.88;100919.53;5057113;28;20024;-44
2022/04/18 21:54:18;;;;;;;2.95;1.67;;;;;;;12.91;47.02;100913.91;5074998;28;20039;-43
2022/04/18 21:56:45;;;;;;;6.78;2.10;;;;;;;12.98;46.06;100920.19;5056590;28;20021;-43
2022/04/18 21:59:12;;;;;;;5.35;1.85;;;;;;;13.00;45.16;100917.28;5074907;28;20066;-43
2022/04/18 22:01:40;;;;;;;6.13;1.92;;;;;;;13.01;45.30;100926.19;5074976;28;20033;-43
2022/04/18 22:04:06;;;;;;;7.78;2.15;;;;;;;12.96;45.96;100929.47;5075212;28;20055;-42
2022/04/18 22:06:33;;;;;;;6.38;1.90;;;;;;;12.94;45.66;100918.06;5074578;28;20032;-42
2022/04/18 22:08:58;;;;;;;2.25;1.48;;;;;;;12.80;46.27;100911.75;5074952;28;20034;-42
2022/04/18 22:11:26;;;;;;;6.88;1.77;;;;;;;12.79;46.26;100915.47;5057219;28;20036;-42
2022/04/18 22:13:52;;;;;;;3.20;1.70;;;;;;;12.66;46.85;100918.09;5074887;28;20078;-43
2022/04/18 22:16:18;;;;;;;4.43;1.45;;;;;;;12.74;46.73;100921.47;5074827;28;20052;-44
2022/04/18 22:24:53;;;;;;;3.35;1.63;;;;;;;12.76;45.87;100921.28;5056492;28;20069;-43
2022/04/18 22:27:03;;;;;;;7.72;2.28;;;;;;;12.70;46.62;100919.34;5059800;28;20040;-44
2022/04/18 22:29:29;;;;;;;2.95;1.83;;;;;;;12.64;46.88;100912.06;5074683;28;20037;-42
2022/04/18 22:31:55;;;;;;;8.07;2.30;;;;;;;12.67;46.26;100917.06;5074892;28;20032;-44
2022/04/18 22:34:21;;;;;;;5.68;2.00;;;;;;;12.57;46.24;100903.91;5077046;28;20032;-43
2022/04/18 22:36:47;;;;;;;4.93;1.90;;;;;;;12.58;46.52;100914.50;5059196;28;20127;-55
2022/04/18 22:39:13;;;;;;;3.53;1.92;;;;;;;12.62;46.24;100924.91;5075761;28;20032;-43
2022/04/18 22:41:39;;;;;;;6.15;2.22;;;;;;;12.63;46.53;100918.47;5056738;28;20029;-44
2022/04/18 22:44:06;;;;;;;3.90;2.17;;;;;;;12.58;46.62;100919.88;5056709;28;20028;-43
2022/04/18 22:46:36;;;;;;;8.38;2.40;;;;;;;12.57;46.71;100920.94;5074206;28;20032;-43
2022/04/18 22:49:03;;;;;;;5.18;1.80;;;;;;;12.58;46.52;100922.59;5073849;28;20033;-42
2022/04/18 22:51:30;;;;;;;3.88;1.73;;;;;;;12.54;46.66;100917.81;5056351;28;20036;-43
2022/04/18 22:53:56;;;;;;;5.40;2.10;;;;;;;12.40;47.02;100909.59;5074079;28;20036;-45
2022/04/18 22:56:22;;;;;;;4.68;1.60;;;;;;;12.44;47.54;100917.28;5056104;28;20029;-44
2022/04/18 22:58:47;;;;;;;4.18;1.42;;;;;;;12.42;47.73;100913.97;5055780;28;20458;-43
2022/04/18 23:01:14;;;;;;;5.72;1.92;;;;;;;12.42;47.26;100917.47;5073994;28;20032;-44
2022/04/18 23:03:41;;;;;;;5.55;2.03;;;;;;;12.39;47.06;100918.72;5073672;28;20036;-43
2022/04/18 23:06:08;;;;;;;4.78;2.20;;;;;;;12.36;48.05;100918.25;5073633;28;20024;-44
2022/04/18 23:08:37;;;;;;;4.70;2.10;;;;;;;12.20;47.28;100903.19;5073346;28;20076;-45
2022/04/18 23:11:03;;;;;;;4.90;2.42;;;;;;;12.23;48.83;100916.28;5055821;28;20024;-43
2022/04/18 23:13:32;;;;;;;7.22;2.85;;;;;;;12.19;48.47;100918.53;5055647;28;20086;-44
2022/04/18 23:15:59;;;;;;;6.63;2.30;;;;;;;12.17;48.14;100917.88;5073489;28;20373;-43
2022/04/18 23:18:25;;;;;;;6.15;2.80;;;;;;;12.12;48.36;100917.63;5073834;28;20370;-43
2022/04/18 23:20:51;;;;;;;3.80;2.30;;;;;;;11.94;48.63;100896.56;5074676;28;20036;-45
2022/04/18 23:23:17;;;;;;;4.03;2.38;;;;;;;11.99;49.25;100914.81;5056647;28;20082;-45
2022/04/18 23:25:43;;;;;;;7.95;2.40;;;;;;;11.97;49.20;100909.63;5075135;28;20119;-43
2022/04/18 23:28:12;;;;;;;4.43;2.40;;;;;;;11.82;48.95;100884.59;5057372;28;20035;-44
2022/04/18 23:30:38;;;;;;;6.70;2.70;;;;;;;11.89;49.85;100898.97;5075235;28;20119;-43
2022/04/18 23:33:05;;;;;;;9.30;2.17;;;;;;;11.89;49.94;100903.50;5055849;28;20029;-42
2022/04/18 23:35:31;;;;;;;4.60;2.15;;;;;;;11.88;49.19;100913.44;5073654;28;20029;-46
2022/04/18 23:37:57;;;;;;;6.60;2.03;;;;;;;11.87;49.88;100910.91;5073295;28;20332;-43
2022/04/18 23:43:09;;;;;;;6.63;2.22;;;;;;;11.84;50.19;100911.31;5044168;28;20470;-44
2022/04/18 23:45:34;;;;;;;3.28;1.70;;;;;;;11.79;50.52;100906.50;5038332;28;20028;-43
2022/04/18 23:48:00;;;;;;;6.20;2.20;;;;;;;11.80;50.68;100917.06;5073058;28;20024;-42
2022/04/18 23:53:11;;;;;;;6.30;2.10;;;;;;;11.66;50.71;100896.41;5058131;28;20134;-42
2022/04/18 23:55:37;;;;;;;6.07;1.85;;;;;;;11.73;50.79;100908.09;5073270;28;20184;-44
2022/04/18 23:58:03;;;;;;;5.05;2.00;;;;;;;11.73;50.35;100907.28;5073159;28;20086;-43
